KRUE

Russellville Regional Airport

Russellville, Arkansas, USA
METAR KRUE 210453Z AUTO 24004KT 10SM CLR 22/18 A2997 RMK AO2 SLP139 T02220183 TSNO
Observed Flight Rules
Aug-21 @ 04:53 UTC (9 hours ago) Visual Flight Rules
Wind Visibility Clouds
240° at 4 knots 10 miles
  • Clear skies
Temperatures Readings
Current 22°C / 72°F
Dewpoint 18°C / 64°F
Humidity 78%
Altimeter 29.97" Hg
Pressure 1013.9 hPa
Elevation 115
METAR KRUE 210453Z AUTO 24004KT 10SM CLR 22/18 A2997 RMK AO2 SLP139 T02220183 TSNO
Observed Flight Rules
Aug-21 @ 04:53 UTC
(9 hours ago)
VFR
Wind Visibility
240° at 4 knots 10 miles
Clouds
  • Clear skies
Temperature Dewpoint
22°C / 72°F 18°C / 64°F
Humidity Altimeter Pressure
78% 29.97" Hg 1013.9 hPa